sensor_id;sensor_type;location;lat;lon;timestamp;temperature;humidity
47384;DHT22;33129;52.232;5.192;2022-12-07T00:02:54;9.20;1.00
47384;DHT22;33129;52.232;5.192;2022-12-07T00:06:14;8.90;1.00
47384;DHT22;33129;52.232;5.192;2022-12-07T00:09:33;8.70;1.00
47384;DHT22;33129;52.232;5.192;2022-12-07T00:12:51;8.70;1.00
47384;DHT22;33129;52.232;5.192;2022-12-07T00:16:15;8.70;1.00
47384;DHT22;33129;52.232;5.192;2022-12-07T00:19:34;8.60;1.00
47384;DHT22;33129;52.232;5.192;2022-12-07T00:22:52;8.80;1.00
47384;DHT22;33129;52.232;5.192;2022-12-07T00:26:13;8.90;1.00
47384;DHT22;33129;52.232;5.192;2022-12-07T00:29:32;8.80;1.00
47384;DHT22;33129;52.232;5.192;2022-12-07T00:32:50;8.80;1.00
47384;DHT22;33129;52.232;5.192;2022-12-07T00:36:11;8.80;1.00
47384;DHT22;33129;52.232;5.192;2022-12-07T00:39:30;8.60;1.00
47384;DHT22;33129;52.232;5.192;2022-12-07T00:42:48;8.70;1.00
47384;DHT22;33129;52.232;5.192;2022-12-07T00:46:08;8.60;1.00
47384;DHT22;33129;52.232;5.192;2022-12-07T00:49:26;8.40;1.00
47384;DHT22;33129;52.232;5.192;2022-12-07T00:52:44;8.20;1.00
47384;DHT22;33129;52.232;5.192;2022-12-07T00:56:11;8.20;1.00
47384;DHT22;33129;52.232;5.192;2022-12-07T00:59:30;8.20;1.00
47384;DHT22;33129;52.232;5.192;2022-12-07T01:02:48;8.40;1.00
47384;DHT22;33129;52.232;5.192;2022-12-07T01:06:07;8.00;1.00
47384;DHT22;33129;52.232;5.192;2022-12-07T01:09:25;8.10;1.00
47384;DHT22;33129;52.232;5.192;2022-12-07T01:12:44;8.30;1.00
47384;DHT22;33129;52.232;5.192;2022-12-07T01:16:05;8.10;1.00
47384;DHT22;33129;52.232;5.192;2022-12-07T01:19:23;8.40;1.00
47384;DHT22;33129;52.232;5.192;2022-12-07T01:22:42;8.10;1.00
47384;DHT22;33129;52.232;5.192;2022-12-07T01:26:04;8.00;1.00
47384;DHT22;33129;52.232;5.192;2022-12-07T01:29:22;8.10;1.00
47384;DHT22;33129;52.232;5.192;2022-12-07T01:32:41;8.30;1.00
47384;DHT22;33129;52.232;5.192;2022-12-07T01:36:13;7.90;1.00
47384;DHT22;33129;52.232;5.192;2022-12-07T01:39:32;8.00;1.00
47384;DHT22;33129;52.232;5.192;2022-12-07T01:42:50;7.90;1.00
47384;DHT22;33129;52.232;5.192;2022-12-07T01:46:27;7.70;1.00
47384;DHT22;33129;52.232;5.192;2022-12-07T01:49:48;7.60;1.00
47384;DHT22;33129;52.232;5.192;2022-12-07T01:53:09;8.10;1.00
47384;DHT22;33129;52.232;5.192;2022-12-07T01:56:29;8.10;1.00
47384;DHT22;33129;52.232;5.192;2022-12-07T01:59:51;8.30;1.00
47384;DHT22;33129;52.232;5.192;2022-12-07T02:03:16;8.00;1.00
47384;DHT22;33129;52.232;5.192;2022-12-07T02:06:37;8.20;1.00
47384;DHT22;33129;52.232;5.192;2022-12-07T02:09:55;8.20;1.00
47384;DHT22;33129;52.232;5.192;2022-12-07T02:13:23;8.30;1.00
47384;DHT22;33129;52.232;5.192;2022-12-07T02:20:48;8.40;1.00
47384;DHT22;33129;52.232;5.192;2022-12-07T02:31:39;8.20;1.00
47384;DHT22;33129;52.232;5.192;2022-12-07T02:35:28;7.90;1.00
47384;DHT22;33129;52.232;5.192;2022-12-07T02:39:00;8.00;1.00
47384;DHT22;33129;52.232;5.192;2022-12-07T02:42:30;7.90;1.00
47384;DHT22;33129;52.232;5.192;2022-12-07T02:46:11;8.00;1.00
47384;DHT22;33129;52.232;5.192;2022-12-07T02:49:32;8.10;1.00
47384;DHT22;33129;52.232;5.192;2022-12-07T02:52:51;8.10;1.00
47384;DHT22;33129;52.232;5.192;2022-12-07T03:03:20;8.40;1.00
47384;DHT22;33129;52.232;5.192;2022-12-07T03:06:47;8.10;1.00
47384;DHT22;33129;52.232;5.192;2022-12-07T03:14:21;8.10;1.00
47384;DHT22;33129;52.232;5.192;2022-12-07T03:17:44;8.50;1.00
47384;DHT22;33129;52.232;5.192;2022-12-07T03:21:11;8.40;1.00
47384;DHT22;33129;52.232;5.192;2022-12-07T03:24:46;8.10;1.00
47384;DHT22;33129;52.232;5.192;2022-12-07T03:28:10;7.90;1.00
47384;DHT22;33129;52.232;5.192;2022-12-07T03:31:36;7.70;1.00
47384;DHT22;33129;52.232;5.192;2022-12-07T03:35:22;7.90;1.00
47384;DHT22;33129;52.232;5.192;2022-12-07T03:42:52;7.80;1.00
47384;DHT22;33129;52.232;5.192;2022-12-07T03:46:19;7.70;1.00
47384;DHT22;33129;52.232;5.192;2022-12-07T03:49:43;7.80;1.00
47384;DHT22;33129;52.232;5.192;2022-12-07T03:53:24;8.00;1.00
47384;DHT22;33129;52.232;5.192;2022-12-07T03:56:50;7.80;1.00
47384;DHT22;33129;52.232;5.192;2022-12-07T04:00:10;7.90;1.00
47384;DHT22;33129;52.232;5.192;2022-12-07T04:03:29;8.20;1.00
47384;DHT22;33129;52.232;5.192;2022-12-07T04:06:50;8.40;1.00
47384;DHT22;33129;52.232;5.192;2022-12-07T04:10:10;8.20;1.00
47384;DHT22;33129;52.232;5.192;2022-12-07T04:13:28;8.40;1.00
47384;DHT22;33129;52.232;5.192;2022-12-07T04:16:49;8.40;1.00
47384;DHT22;33129;52.232;5.192;2022-12-07T04:20:08;8.50;1.00
47384;DHT22;33129;52.232;5.192;2022-12-07T04:23:26;8.20;1.00
47384;DHT22;33129;52.232;5.192;2022-12-07T04:26:45;8.50;1.00
47384;DHT22;33129;52.232;5.192;2022-12-07T04:30:04;7.90;1.00
47384;DHT22;33129;52.232;5.192;2022-12-07T04:33:23;7.90;1.00
47384;DHT22;33129;52.232;5.192;2022-12-07T04:36:42;7.80;1.00
47384;DHT22;33129;52.232;5.192;2022-12-07T04:40:01;7.70;1.00
47384;DHT22;33129;52.232;5.192;2022-12-07T04:43:19;8.10;1.00
47384;DHT22;33129;52.232;5.192;2022-12-07T04:46:39;8.10;1.00
47384;DHT22;33129;52.232;5.192;2022-12-07T04:49:57;8.40;1.00
47384;DHT22;33129;52.232;5.192;2022-12-07T04:53:16;8.30;1.00
47384;DHT22;33129;52.232;5.192;2022-12-07T04:56:35;8.10;1.00
47384;DHT22;33129;52.232;5.192;2022-12-07T04:59:53;8.10;1.00
47384;DHT22;33129;52.232;5.192;2022-12-07T05:03:11;8.30;1.00
47384;DHT22;33129;52.232;5.192;2022-12-07T05:06:30;8.40;1.00
47384;DHT22;33129;52.232;5.192;2022-12-07T05:09:48;8.40;1.00
47384;DHT22;33129;52.232;5.192;2022-12-07T05:13:06;8.30;1.00
47384;DHT22;33129;52.232;5.192;2022-12-07T05:16:25;8.10;1.00
47384;DHT22;33129;52.232;5.192;2022-12-07T05:19:43;8.30;1.00
47384;DHT22;33129;52.232;5.192;2022-12-07T05:23:02;8.40;1.00
47384;DHT22;33129;52.232;5.192;2022-12-07T05:26:21;8.40;1.00
47384;DHT22;33129;52.232;5.192;2022-12-07T05:29:39;8.00;1.00
47384;DHT22;33129;52.232;5.192;2022-12-07T05:32:58;8.10;1.00
47384;DHT22;33129;52.232;5.192;2022-12-07T05:36:16;8.20;1.00
47384;DHT22;33129;52.232;5.192;2022-12-07T05:39:35;8.10;1.00
47384;DHT22;33129;52.232;5.192;2022-12-07T05:42:53;8.10;1.00
47384;DHT22;33129;52.232;5.192;2022-12-07T05:46:11;8.00;1.00
47384;DHT22;33129;52.232;5.192;2022-12-07T05:49:29;8.20;1.00
47384;DHT22;33129;52.232;5.192;2022-12-07T05:52:48;8.10;1.00
47384;DHT22;33129;52.232;5.192;2022-12-07T05:56:06;7.80;1.00
47384;DHT22;33129;52.232;5.192;2022-12-07T05:59:25;8.10;1.00
47384;DHT22;33129;52.232;5.192;2022-12-07T06:02:44;8.50;1.00
47384;DHT22;33129;52.232;5.192;2022-12-07T06:06:02;8.30;1.00
47384;DHT22;33129;52.232;5.192;2022-12-07T06:09:22;8.10;1.00
47384;DHT22;33129;52.232;5.192;2022-12-07T06:12:40;7.80;1.00
47384;DHT22;33129;52.232;5.192;2022-12-07T06:15:59;7.80;1.00
47384;DHT22;33129;52.232;5.192;2022-12-07T06:19:17;7.80;1.00
47384;DHT22;33129;52.232;5.192;2022-12-07T06:22:36;8.10;1.00
47384;DHT22;33129;52.232;5.192;2022-12-07T06:25:54;8.20;1.00
47384;DHT22;33129;52.232;5.192;2022-12-07T06:29:13;8.40;1.00
47384;DHT22;33129;52.232;5.192;2022-12-07T06:32:33;8.20;1.00
47384;DHT22;33129;52.232;5.192;2022-12-07T06:35:52;8.20;1.00
47384;DHT22;33129;52.232;5.192;2022-12-07T06:39:11;8.00;1.00
47384;DHT22;33129;52.232;5.192;2022-12-07T06:42:30;8.30;1.00
47384;DHT22;33129;52.232;5.192;2022-12-07T06:45:48;8.10;1.00
47384;DHT22;33129;52.232;5.192;2022-12-07T06:49:06;8.10;1.00
47384;DHT22;33129;52.232;5.192;2022-12-07T06:52:28;7.90;1.00
47384;DHT22;33129;52.232;5.192;2022-12-07T06:55:46;7.70;1.00
47384;DHT22;33129;52.232;5.192;2022-12-07T06:59:07;8.20;1.00
47384;DHT22;33129;52.232;5.192;2022-12-07T07:02:25;7.90;1.00
47384;DHT22;33129;52.232;5.192;2022-12-07T07:05:44;7.80;1.00
47384;DHT22;33129;52.232;5.192;2022-12-07T07:09:02;8.40;1.00
47384;DHT22;33129;52.232;5.192;2022-12-07T07:12:21;8.30;1.00
47384;DHT22;33129;52.232;5.192;2022-12-07T07:15:39;8.20;1.00
47384;DHT22;33129;52.232;5.192;2022-12-07T07:18:57;8.20;1.00
47384;DHT22;33129;52.232;5.192;2022-12-07T07:22:16;8.30;1.00
47384;DHT22;33129;52.232;5.192;2022-12-07T07:25:34;8.00;1.00
47384;DHT22;33129;52.232;5.192;2022-12-07T07:28:52;8.20;1.00
47384;DHT22;33129;52.232;5.192;2022-12-07T07:32:11;8.00;1.00
47384;DHT22;33129;52.232;5.192;2022-12-07T07:35:30;7.90;1.00
47384;DHT22;33129;52.232;5.192;2022-12-07T07:38:49;8.30;1.00
47384;DHT22;33129;52.232;5.192;2022-12-07T07:42:07;8.00;1.00
47384;DHT22;33129;52.232;5.192;2022-12-07T07:45:26;8.40;1.00
47384;DHT22;33129;52.232;5.192;2022-12-07T07:48:45;8.10;1.00
47384;DHT22;33129;52.232;5.192;2022-12-07T07:52:05;8.00;1.00
47384;DHT22;33129;52.232;5.192;2022-12-07T07:55:24;8.00;1.00
47384;DHT22;33129;52.232;5.192;2022-12-07T07:58:42;8.30;1.00
47384;DHT22;33129;52.232;5.192;2022-12-07T08:02:00;8.20;1.00
47384;DHT22;33129;52.232;5.192;2022-12-07T08:05:19;7.80;1.00
47384;DHT22;33129;52.232;5.192;2022-12-07T08:08:37;7.70;1.00
47384;DHT22;33129;52.232;5.192;2022-12-07T08:11:55;8.10;1.00
47384;DHT22;33129;52.232;5.192;2022-12-07T08:15:32;8.10;1.00
47384;DHT22;33129;52.232;5.192;2022-12-07T08:18:50;8.20;1.00
47384;DHT22;33129;52.232;5.192;2022-12-07T08:22:08;7.80;1.00
47384;DHT22;33129;52.232;5.192;2022-12-07T08:25:28;8.00;1.00
47384;DHT22;33129;52.232;5.192;2022-12-07T08:28:46;8.30;1.00
47384;DHT22;33129;52.232;5.192;2022-12-07T08:32:04;8.30;1.00
47384;DHT22;33129;52.232;5.192;2022-12-07T08:35:24;8.10;1.00
47384;DHT22;33129;52.232;5.192;2022-12-07T08:38:42;8.90;1.00
47384;DHT22;33129;52.232;5.192;2022-12-07T08:42:01;8.90;1.00
47384;DHT22;33129;52.232;5.192;2022-12-07T08:45:20;9.10;1.00
47384;DHT22;33129;52.232;5.192;2022-12-07T08:48:51;9.50;1.00
47384;DHT22;33129;52.232;5.192;2022-12-07T08:52:11;9.50;1.00
47384;DHT22;33129;52.232;5.192;2022-12-07T08:55:30;9.30;1.00
47384;DHT22;33129;52.232;5.192;2022-12-07T08:58:48;9.00;1.00
47384;DHT22;33129;52.232;5.192;2022-12-07T09:02:07;8.90;1.00
47384;DHT22;33129;52.232;5.192;2022-12-07T09:05:25;9.00;1.00
47384;DHT22;33129;52.232;5.192;2022-12-07T09:08:47;9.40;1.00
47384;DHT22;33129;52.232;5.192;2022-12-07T09:12:05;9.60;1.00
47384;DHT22;33129;52.232;5.192;2022-12-07T09:15:29;9.00;1.00
47384;DHT22;33129;52.232;5.192;2022-12-07T09:18:48;9.10;1.00
47384;DHT22;33129;52.232;5.192;2022-12-07T09:22:08;9.20;1.00
47384;DHT22;33129;52.232;5.192;2022-12-07T09:25:27;9.10;1.00
47384;DHT22;33129;52.232;5.192;2022-12-07T09:28:46;9.20;1.00
47384;DHT22;33129;52.232;5.192;2022-12-07T09:32:04;9.30;1.00
47384;DHT22;33129;52.232;5.192;2022-12-07T09:35:24;9.30;1.00
47384;DHT22;33129;52.232;5.192;2022-12-07T09:38:38;9.60;1.00
47384;DHT22;33129;52.232;5.192;2022-12-07T09:41:57;9.70;1.00
47384;DHT22;33129;52.232;5.192;2022-12-07T09:45:24;9.70;1.00
47384;DHT22;33129;52.232;5.192;2022-12-07T09:48:44;9.30;1.00
47384;DHT22;33129;52.232;5.192;2022-12-07T09:52:20;9.40;1.00
47384;DHT22;33129;52.232;5.192;2022-12-07T09:55:41;9.10;1.00
47384;DHT22;33129;52.232;5.192;2022-12-07T09:59:01;9.20;1.00
47384;DHT22;33129;52.232;5.192;2022-12-07T10:05:50;9.70;1.00
47384;DHT22;33129;52.232;5.192;2022-12-07T10:09:12;9.50;1.00
47384;DHT22;33129;52.232;5.192;2022-12-07T10:24:05;9.90;1.00
47384;DHT22;33129;52.232;5.192;2022-12-07T10:27:32;9.90;1.00
47384;DHT22;33129;52.232;5.192;2022-12-07T10:31:14;10.40;1.00
47384;DHT22;33129;52.232;5.192;2022-12-07T10:34:42;11.50;1.00
47384;DHT22;33129;52.232;5.192;2022-12-07T10:38:00;10.80;1.00
47384;DHT22;33129;52.232;5.192;2022-12-07T10:41:25;10.80;1.00
47384;DHT22;33129;52.232;5.192;2022-12-07T10:45:14;12.20;1.00
47384;DHT22;33129;52.232;5.192;2022-12-07T11:03:54;10.40;1.00
47384;DHT22;33129;52.232;5.192;2022-12-07T11:08:05;10.20;1.00
47384;DHT22;33129;52.232;5.192;2022-12-07T11:20:24;10.00;1.00
47384;DHT22;33129;52.232;5.192;2022-12-07T11:24:11;10.50;1.00
47384;DHT22;33129;52.232;5.192;2022-12-07T11:31:58;11.00;1.00
47384;DHT22;33129;52.232;5.192;2022-12-07T11:38:47;11.20;1.00
47384;DHT22;33129;52.232;5.192;2022-12-07T11:42:34;11.40;1.00
47384;DHT22;33129;52.232;5.192;2022-12-07T11:46:09;11.40;1.00
47384;DHT22;33129;52.232;5.192;2022-12-07T11:49:56;11.90;1.00
47384;DHT22;33129;52.232;5.192;2022-12-07T11:53:25;12.30;99.90
47384;DHT22;33129;52.232;5.192;2022-12-07T11:56:51;12.20;99.90
47384;DHT22;33129;52.232;5.192;2022-12-07T12:00:15;12.60;1.00
47384;DHT22;33129;52.232;5.192;2022-12-07T12:03:45;12.80;1.00
47384;DHT22;33129;52.232;5.192;2022-12-07T12:07:11;13.20;99.90
47384;DHT22;33129;52.232;5.192;2022-12-07T12:10:55;13.20;99.90
47384;DHT22;33129;52.232;5.192;2022-12-07T12:21:49;14.30;99.90
47384;DHT22;33129;52.232;5.192;2022-12-07T12:25:37;14.10;99.90
47384;DHT22;33129;52.232;5.192;2022-12-07T12:29:03;13.50;99.90
47384;DHT22;33129;52.232;5.192;2022-12-07T12:32:36;11.30;99.90
47384;DHT22;33129;52.232;5.192;2022-12-07T12:47:42;10.70;1.00
47384;DHT22;33129;52.232;5.192;2022-12-07T12:51:36;10.80;1.00
47384;DHT22;33129;52.232;5.192;2022-12-07T12:55:12;10.80;1.00
47384;DHT22;33129;52.232;5.192;2022-12-07T13:02:54;12.40;1.00
47384;DHT22;33129;52.232;5.192;2022-12-07T13:10:02;12.80;99.90
47384;DHT22;33129;52.232;5.192;2022-12-07T13:16:56;13.30;99.90
47384;DHT22;33129;52.232;5.192;2022-12-07T13:20:47;12.70;99.90
47384;DHT22;33129;52.232;5.192;2022-12-07T13:24:10;12.70;99.90
47384;DHT22;33129;52.232;5.192;2022-12-07T13:27:55;12.40;99.90
47384;DHT22;33129;52.232;5.192;2022-12-07T13:31:44;12.10;99.90
47384;DHT22;33129;52.232;5.192;2022-12-07T13:35:29;11.70;99.90
47384;DHT22;33129;52.232;5.192;2022-12-07T13:38:54;11.40;99.90
47384;DHT22;33129;52.232;5.192;2022-12-07T13:42:27;10.60;99.90
47384;DHT22;33129;52.232;5.192;2022-12-07T13:45:56;11.20;1.00
47384;DHT22;33129;52.232;5.192;2022-12-07T13:49:52;11.00;1.00
47384;DHT22;33129;52.232;5.192;2022-12-07T13:53:17;11.20;1.00
47384;DHT22;33129;52.232;5.192;2022-12-07T13:56:37;11.20;1.00
47384;DHT22;33129;52.232;5.192;2022-12-07T13:59:56;11.20;1.00
47384;DHT22;33129;52.232;5.192;2022-12-07T14:06:53;11.70;1.00
47384;DHT22;33129;52.232;5.192;2022-12-07T14:10:34;11.30;99.90
47384;DHT22;33129;52.232;5.192;2022-12-07T14:13:58;11.60;1.00
47384;DHT22;33129;52.232;5.192;2022-12-07T14:17:22;11.40;1.00
47384;DHT22;33129;52.232;5.192;2022-12-07T14:24:42;11.30;1.00
47384;DHT22;33129;52.232;5.192;2022-12-07T14:28:30;11.10;1.00
47384;DHT22;33129;52.232;5.192;2022-12-07T14:31:52;11.00;99.90
47384;DHT22;33129;52.232;5.192;2022-12-07T14:35:15;11.00;1.00
47384;DHT22;33129;52.232;5.192;2022-12-07T14:38:42;11.20;1.00
47384;DHT22;33129;52.232;5.192;2022-12-07T14:42:00;11.10;1.00
47384;DHT22;33129;52.232;5.192;2022-12-07T14:45:29;11.10;99.90
47384;DHT22;33129;52.232;5.192;2022-12-07T14:48:47;10.70;99.90
47384;DHT22;33129;52.232;5.192;2022-12-07T14:52:08;10.30;1.00
47384;DHT22;33129;52.232;5.192;2022-12-07T14:55:31;9.90;1.00
47384;DHT22;33129;52.232;5.192;2022-12-07T14:58:50;10.00;1.00
47384;DHT22;33129;52.232;5.192;2022-12-07T15:02:11;9.70;1.00
47384;DHT22;33129;52.232;5.192;2022-12-07T15:05:30;9.90;1.00
47384;DHT22;33129;52.232;5.192;2022-12-07T15:08:49;10.30;1.00
47384;DHT22;33129;52.232;5.192;2022-12-07T15:12:07;10.20;1.00
47384;DHT22;33129;52.232;5.192;2022-12-07T15:15:49;10.60;1.00
47384;DHT22;33129;52.232;5.192;2022-12-07T15:19:22;10.60;1.00
47384;DHT22;33129;52.232;5.192;2022-12-07T15:22:42;10.30;1.00
47384;DHT22;33129;52.232;5.192;2022-12-07T15:26:00;10.40;1.00
47384;DHT22;33129;52.232;5.192;2022-12-07T15:29:18;10.40;1.00
47384;DHT22;33129;52.232;5.192;2022-12-07T15:32:37;10.40;1.00
47384;DHT22;33129;52.232;5.192;2022-12-07T15:35:55;10.60;1.00
47384;DHT22;33129;52.232;5.192;2022-12-07T15:39:14;10.40;1.00
47384;DHT22;33129;52.232;5.192;2022-12-07T15:42:32;10.40;1.00
47384;DHT22;33129;52.232;5.192;2022-12-07T15:46:09;10.40;1.00
47384;DHT22;33129;52.232;5.192;2022-12-07T15:49:29;10.10;1.00
47384;DHT22;33129;52.232;5.192;2022-12-07T15:52:48;10.10;1.00
47384;DHT22;33129;52.232;5.192;2022-12-07T15:56:07;10.10;1.00
47384;DHT22;33129;52.232;5.192;2022-12-07T15:59:27;9.80;1.00
47384;DHT22;33129;52.232;5.192;2022-12-07T16:02:46;10.10;1.00
47384;DHT22;33129;52.232;5.192;2022-12-07T16:06:04;10.10;1.00
47384;DHT22;33129;52.232;5.192;2022-12-07T16:09:23;10.20;1.00
47384;DHT22;33129;52.232;5.192;2022-12-07T16:12:41;10.20;1.00
47384;DHT22;33129;52.232;5.192;2022-12-07T16:16:03;10.00;1.00
47384;DHT22;33129;52.232;5.192;2022-12-07T16:19:22;10.10;1.00
47384;DHT22;33129;52.232;5.192;2022-12-07T16:22:40;10.20;1.00
47384;DHT22;33129;52.232;5.192;2022-12-07T16:26:13;10.10;1.00
47384;DHT22;33129;52.232;5.192;2022-12-07T16:29:32;10.10;1.00
47384;DHT22;33129;52.232;5.192;2022-12-07T16:32:51;10.20;1.00
47384;DHT22;33129;52.232;5.192;2022-12-07T16:36:11;10.40;1.00
47384;DHT22;33129;52.232;5.192;2022-12-07T16:39:29;10.20;1.00
47384;DHT22;33129;52.232;5.192;2022-12-07T16:42:48;10.20;1.00
47384;DHT22;33129;52.232;5.192;2022-12-07T16:46:06;10.10;1.00
47384;DHT22;33129;52.232;5.192;2022-12-07T16:49:26;10.20;1.00
47384;DHT22;33129;52.232;5.192;2022-12-07T16:52:44;10.10;1.00
47384;DHT22;33129;52.232;5.192;2022-12-07T16:56:03;10.30;1.00
47384;DHT22;33129;52.232;5.192;2022-12-07T16:59:22;9.90;1.00
47384;DHT22;33129;52.232;5.192;2022-12-07T17:02:40;10.20;1.00
47384;DHT22;33129;52.232;5.192;2022-12-07T17:05:58;10.30;1.00
47384;DHT22;33129;52.232;5.192;2022-12-07T17:09:17;10.30;1.00
47384;DHT22;33129;52.232;5.192;2022-12-07T17:12:36;10.20;1.00
47384;DHT22;33129;52.232;5.192;2022-12-07T17:16:16;10.10;1.00
47384;DHT22;33129;52.232;5.192;2022-12-07T17:19:34;10.10;1.00
47384;DHT22;33129;52.232;5.192;2022-12-07T17:22:54;9.80;1.00
47384;DHT22;33129;52.232;5.192;2022-12-07T17:26:22;9.60;1.00
47384;DHT22;33129;52.232;5.192;2022-12-07T17:29:40;10.00;1.00
47384;DHT22;33129;52.232;5.192;2022-12-07T17:32:59;8.90;1.00
47384;DHT22;33129;52.232;5.192;2022-12-07T17:36:20;8.40;1.00
47384;DHT22;33129;52.232;5.192;2022-12-07T17:39:38;8.50;1.00
47384;DHT22;33129;52.232;5.192;2022-12-07T17:42:57;8.70;1.00
47384;DHT22;33129;52.232;5.192;2022-12-07T17:46:15;8.90;1.00
47384;DHT22;33129;52.232;5.192;2022-12-07T17:49:35;9.10;1.00
47384;DHT22;33129;52.232;5.192;2022-12-07T17:52:38;9.20;1.00
47384;DHT22;33129;52.232;5.192;2022-12-07T17:55:55;9.40;1.00
47384;DHT22;33129;52.232;5.192;2022-12-07T17:59:13;8.90;1.00
47384;DHT22;33129;52.232;5.192;2022-12-07T18:02:32;8.50;1.00
47384;DHT22;33129;52.232;5.192;2022-12-07T18:05:49;8.60;1.00
47384;DHT22;33129;52.232;5.192;2022-12-07T18:09:07;8.80;1.00
47384;DHT22;33129;52.232;5.192;2022-12-07T18:12:26;8.20;1.00
47384;DHT22;33129;52.232;5.192;2022-12-07T18:16:14;7.90;1.00
47384;DHT22;33129;52.232;5.192;2022-12-07T18:19:32;8.20;1.00
47384;DHT22;33129;52.232;5.192;2022-12-07T18:22:51;7.90;1.00
47384;DHT22;33129;52.232;5.192;2022-12-07T18:26:10;8.40;1.00
47384;DHT22;33129;52.232;5.192;2022-12-07T18:29:30;8.50;1.00
47384;DHT22;33129;52.232;5.192;2022-12-07T18:32:48;8.60;1.00
47384;DHT22;33129;52.232;5.192;2022-12-07T18:36:08;8.80;1.00
47384;DHT22;33129;52.232;5.192;2022-12-07T18:39:26;8.50;1.00
47384;DHT22;33129;52.232;5.192;2022-12-07T18:42:45;8.60;1.00
47384;DHT22;33129;52.232;5.192;2022-12-07T18:46:18;8.30;1.00
47384;DHT22;33129;52.232;5.192;2022-12-07T18:49:36;8.60;1.00
47384;DHT22;33129;52.232;5.192;2022-12-07T18:53:04;8.60;1.00
47384;DHT22;33129;52.232;5.192;2022-12-07T18:56:25;8.40;1.00
47384;DHT22;33129;52.232;5.192;2022-12-07T18:59:43;8.70;1.00
47384;DHT22;33129;52.232;5.192;2022-12-07T19:03:01;9.10;1.00
47384;DHT22;33129;52.232;5.192;2022-12-07T19:06:20;9.00;1.00
47384;DHT22;33129;52.232;5.192;2022-12-07T19:09:39;9.00;1.00
47384;DHT22;33129;52.232;5.192;2022-12-07T19:12:57;9.40;1.00
47384;DHT22;33129;52.232;5.192;2022-12-07T19:16:16;9.30;1.00
47384;DHT22;33129;52.232;5.192;2022-12-07T19:19:44;9.40;1.00
47384;DHT22;33129;52.232;5.192;2022-12-07T19:23:02;9.40;1.00
47384;DHT22;33129;52.232;5.192;2022-12-07T19:26:21;9.20;1.00
47384;DHT22;33129;52.232;5.192;2022-12-07T19:29:40;9.40;1.00
47384;DHT22;33129;52.232;5.192;2022-12-07T19:32:59;9.20;1.00
47384;DHT22;33129;52.232;5.192;2022-12-07T19:36:17;9.50;1.00
47384;DHT22;33129;52.232;5.192;2022-12-07T19:39:38;9.40;1.00
47384;DHT22;33129;52.232;5.192;2022-12-07T19:42:56;9.20;1.00
47384;DHT22;33129;52.232;5.192;2022-12-07T19:46:15;9.20;1.00
47384;DHT22;33129;52.232;5.192;2022-12-07T19:49:34;9.10;1.00
47384;DHT22;33129;52.232;5.192;2022-12-07T19:52:50;8.70;1.00
47384;DHT22;33129;52.232;5.192;2022-12-07T19:56:13;8.80;1.00
47384;DHT22;33129;52.232;5.192;2022-12-07T19:59:33;9.10;1.00
47384;DHT22;33129;52.232;5.192;2022-12-07T20:02:50;9.10;1.00
47384;DHT22;33129;52.232;5.192;2022-12-07T20:06:11;9.00;1.00
47384;DHT22;33129;52.232;5.192;2022-12-07T20:09:30;8.90;1.00
47384;DHT22;33129;52.232;5.192;2022-12-07T20:12:48;8.90;1.00
47384;DHT22;33129;52.232;5.192;2022-12-07T20:16:07;9.00;1.00
47384;DHT22;33129;52.232;5.192;2022-12-07T20:19:25;9.00;1.00
47384;DHT22;33129;52.232;5.192;2022-12-07T20:22:44;8.60;1.00
47384;DHT22;33129;52.232;5.192;2022-12-07T20:26:07;8.90;1.00
47384;DHT22;33129;52.232;5.192;2022-12-07T20:29:26;8.60;1.00
47384;DHT22;33129;52.232;5.192;2022-12-07T20:32:44;8.10;1.00
47384;DHT22;33129;52.232;5.192;2022-12-07T20:36:03;8.40;1.00
47384;DHT22;33129;52.232;5.192;2022-12-07T20:39:22;8.30;1.00
47384;DHT22;33129;52.232;5.192;2022-12-07T20:42:40;8.10;1.00
47384;DHT22;33129;52.232;5.192;2022-12-07T20:45:59;8.10;1.00
47384;DHT22;33129;52.232;5.192;2022-12-07T20:49:18;8.10;1.00
47384;DHT22;33129;52.232;5.192;2022-12-07T20:52:39;7.60;1.00
47384;DHT22;33129;52.232;5.192;2022-12-07T20:55:58;7.90;1.00
47384;DHT22;33129;52.232;5.192;2022-12-07T20:59:19;7.90;1.00
47384;DHT22;33129;52.232;5.192;2022-12-07T21:02:38;8.10;1.00
47384;DHT22;33129;52.232;5.192;2022-12-07T21:06:01;7.80;1.00
47384;DHT22;33129;52.232;5.192;2022-12-07T21:09:19;7.90;1.00
47384;DHT22;33129;52.232;5.192;2022-12-07T21:12:37;8.00;1.00
47384;DHT22;33129;52.232;5.192;2022-12-07T21:15:55;7.90;1.00
47384;DHT22;33129;52.232;5.192;2022-12-07T21:19:14;7.50;1.00
47384;DHT22;33129;52.232;5.192;2022-12-07T21:22:32;7.50;1.00
47384;DHT22;33129;52.232;5.192;2022-12-07T21:25:51;7.50;1.00
47384;DHT22;33129;52.232;5.192;2022-12-07T21:29:15;7.40;1.00
47384;DHT22;33129;52.232;5.192;2022-12-07T21:32:33;7.40;1.00
47384;DHT22;33129;52.232;5.192;2022-12-07T21:35:52;7.30;1.00
47384;DHT22;33129;52.232;5.192;2022-12-07T21:39:13;7.20;1.00
47384;DHT22;33129;52.232;5.192;2022-12-07T21:42:32;7.40;1.00
47384;DHT22;33129;52.232;5.192;2022-12-07T21:45:54;6.90;1.00
47384;DHT22;33129;52.232;5.192;2022-12-07T21:49:14;7.20;1.00
47384;DHT22;33129;52.232;5.192;2022-12-07T21:52:32;7.30;1.00
47384;DHT22;33129;52.232;5.192;2022-12-07T21:55:51;7.00;1.00
47384;DHT22;33129;52.232;5.192;2022-12-07T21:59:15;7.00;1.00
47384;DHT22;33129;52.232;5.192;2022-12-07T22:02:34;7.10;1.00
47384;DHT22;33129;52.232;5.192;2022-12-07T22:06:00;7.00;1.00
47384;DHT22;33129;52.232;5.192;2022-12-07T22:09:19;7.30;1.00
47384;DHT22;33129;52.232;5.192;2022-12-07T22:12:59;7.10;1.00
47384;DHT22;33129;52.232;5.192;2022-12-07T22:16:37;6.90;1.00
47384;DHT22;33129;52.232;5.192;2022-12-07T22:19:59;7.10;1.00
47384;DHT22;33129;52.232;5.192;2022-12-07T22:23:17;7.20;1.00
47384;DHT22;33129;52.232;5.192;2022-12-07T22:26:35;7.10;1.00
47384;DHT22;33129;52.232;5.192;2022-12-07T22:29:57;7.20;1.00
47384;DHT22;33129;52.232;5.192;2022-12-07T22:33:15;6.80;1.00
47384;DHT22;33129;52.232;5.192;2022-12-07T22:36:39;6.90;1.00
47384;DHT22;33129;52.232;5.192;2022-12-07T22:39:58;6.90;1.00
47384;DHT22;33129;52.232;5.192;2022-12-07T22:43:16;6.60;1.00
47384;DHT22;33129;52.232;5.192;2022-12-07T22:46:35;6.80;1.00
47384;DHT22;33129;52.232;5.192;2022-12-07T22:49:53;6.70;1.00
47384;DHT22;33129;52.232;5.192;2022-12-07T22:53:11;6.60;1.00
47384;DHT22;33129;52.232;5.192;2022-12-07T22:56:33;6.70;1.00
47384;DHT22;33129;52.232;5.192;2022-12-07T22:59:53;7.00;1.00
47384;DHT22;33129;52.232;5.192;2022-12-07T23:03:13;6.90;1.00
47384;DHT22;33129;52.232;5.192;2022-12-07T23:06:33;7.10;1.00
47384;DHT22;33129;52.232;5.192;2022-12-07T23:09:51;7.30;1.00
47384;DHT22;33129;52.232;5.192;2022-12-07T23:13:12;7.50;1.00
47384;DHT22;33129;52.232;5.192;2022-12-07T23:16:35;7.30;1.00
47384;DHT22;33129;52.232;5.192;2022-12-07T23:19:54;7.40;1.00
47384;DHT22;33129;52.232;5.192;2022-12-07T23:23:12;7.40;1.00
47384;DHT22;33129;52.232;5.192;2022-12-07T23:26:30;7.40;1.00
47384;DHT22;33129;52.232;5.192;2022-12-07T23:29:49;7.40;1.00
47384;DHT22;33129;52.232;5.192;2022-12-07T23:33:06;7.30;1.00
47384;DHT22;33129;52.232;5.192;2022-12-07T23:36:26;7.30;1.00
47384;DHT22;33129;52.232;5.192;2022-12-07T23:39:45;7.60;1.00
47384;DHT22;33129;52.232;5.192;2022-12-07T23:43:03;7.60;1.00
47384;DHT22;33129;52.232;5.192;2022-12-07T23:46:25;7.60;1.00